Latest Weather Observations for Sellicks Hill

IDS60801

Issued at 3:02 pm CDT Monday 22 December 2014 (issued every 30 minutes, with the page automatically refreshed every 10 minutes)

About weather observations | Map of weather stations | Latest weather observations for SA | Other Formats
Station Details ID: 023886 Name: MOUNT TERRIBLE RADAR Lat: -35.33 Lon: 138.50 Height: 385.7 m
Data from the previous 72 hours. | See also: Recent months for locations in South Australia
Date/Time
CDT
Temp
°C
App
Temp
°C
Dew
Point
Rel
Hum
%
Delta-T
°C
Wind Press
QNH
hPa
Press
MSL
hPa
Rain
since 9 am
mm
Dir
 
Spd
km/h
Gust
km/h
Spd
kts
Gust
kts
22/03:00pm - - - - - WSW 6 13 3 7 - - -
22/02:30pm - - - - - NNW 7 15 4 8 - - -
22/02:00pm - - - - - NW 7 13 4 7 - - -
22/01:30pm - - - - - WNW 6 11 3 6 - - -
22/01:00pm - - - - - NW 4 7 2 4 - - -
22/12:30pm - - - - - WNW 7 15 4 8 - - -
22/12:00pm - - - - - W 7 13 4 7 - - -
22/11:30am - - - - - W 7 17 4 9 - - -
22/11:00am - - - - - NW 4 9 2 5 - - -
22/10:30am - - - - - NW 6 9 3 5 - - -
22/10:00am - - - - - ENE 2 6 1 3 - - -
22/09:30am - - - - - SE 9 15 5 8 - - -
22/09:00am - - - - - SE 11 19 6 10 - - -
22/08:30am - - - - - SSE 22 26 12 14 - - -
22/08:00am - - - - - SE 19 24 10 13 - - -
22/07:30am - - - - - SE 22 26 12 14 - - -
22/07:00am - - - - - SE 26 32 14 17 - - -
22/06:30am - - - - - SE 26 32 14 17 - - -
22/06:00am - - - - - SE 26 32 14 17 - - -
22/05:30am - - - - - SE 26 30 14 16 - - -
22/05:00am - - - - - SE 28 32 15 17 - - -
22/04:30am - - - - - SE 20 28 11 15 - - -
22/04:00am - - - - - SSE 17 20 9 11 - - -
22/03:30am - - - - - SE 26 30 14 16 - - -
22/03:00am - - - - - SE 28 32 15 17 - - -
22/02:30am - - - - - SSE 37 43 20 23 - - -
22/02:00am - - - - - SSE 39 43 21 23 - - -
22/01:30am - - - - - SSE 39 44 21 24 - - -
22/01:00am - - - - - SSE 37 43 20 23 - - -
22/12:30am - - - - - SSE 39 46 21 25 - - -
22/12:00am - - - - - SSE 35 41 19 22 - - -
 
Date/Time
CDT
Temp
°C
App
Temp
°C
Dew
Point
Rel
Hum
%
Delta-T
°C
Wind Press
QNH
hPa
Press
MSL
hPa
Rain
since 9 am
mm
Dir
 
Spd
km/h
Gust
km/h
Spd
kts
Gust
kts
21/11:30pm - - - - - SSE 37 41 20 22 - - -
21/11:00pm - - - - - SSE 32 37 17 20 - - -
21/10:30pm - - - - - SSE 35 41 19 22 - - -
21/10:00pm - - - - - SSE 35 43 19 23 - - -
21/09:30pm - - - - - SSE 39 46 21 25 - - -
21/09:00pm - - - - - SE 35 43 19 23 - - -
21/08:30pm - - - - - SE 35 43 19 23 - - -
21/08:00pm - - - - - SE 32 39 17 21 - - -
21/07:30pm - - - - - SE 33 41 18 22 - - -
21/07:00pm - - - - - SE 35 43 19 23 - - -
21/06:30pm - - - - - SE 33 39 18 21 - - -
21/06:00pm - - - - - SSE 28 32 15 17 - - -
21/05:30pm - - - - - SSE 28 30 15 16 - - -
21/05:00pm - - - - - SSE 26 30 14 16 - - -
21/04:30pm - - - - - SSE 20 28 11 15 - - -
21/04:00pm - - - - - SSE 17 24 9 13 - - -
21/03:30pm - - - - - S 15 20 8 11 - - -
21/03:00pm - - - - - SSE 19 26 10 14 - - -
21/02:30pm - - - - - NW 6 11 3 6 - - -
21/02:00pm - - - - - WNW 7 13 4 7 - - -
21/01:30pm - - - - - WNW 6 13 3 7 - - -
21/01:00pm - - - - - NW 7 11 4 6 - - -
21/12:30pm - - - - - NW 9 20 5 11 - - -
21/12:00pm - - - - - NNW 15 24 8 13 - - -
21/11:30am - - - - - NNW 17 28 9 15 - - -
21/11:00am - - - - - NNW 17 32 9 17 - - -
21/10:30am - - - - - NNW 19 32 10 17 - - -
21/10:00am - - - - - NNW 19 32 10 17 - - -
21/09:30am - - - - - NNW 15 26 8 14 - - -
21/09:00am - - - - - N 11 20 6 11 - - -
21/08:30am - - - - - N 11 20 6 11 - - -
21/08:00am - - - - - N 11 20 6 11 - - -
21/07:30am - - - - - N 11 28 6 15 - - -
21/07:00am - - - - - N 9 17 5 9 - - -
21/06:30am - - - - - N 7 19 4 10 - - -
21/06:00am - - - - - N 7 13 4 7 - - -
21/05:30am - - - - - NE 6 13 3 7 - - -
21/05:00am - - - - - NNE 9 17 5 9 - - -
21/04:30am - - - - - NE 9 15 5 8 - - -
21/04:00am - - - - - ENE 13 20 7 11 - - -
21/03:30am - - - - - E 17 26 9 14 - - -
21/03:00am - - - - - E 20 32 11 17 - - -
21/02:30am - - - - - E 20 30 11 16 - - -
21/02:00am - - - - - E 22 33 12 18 - - -
21/01:30am - - - - - E 28 37 15 20 - - -
21/01:00am - - - - - E 28 37 15 20 - - -
21/12:30am - - - - - ESE 28 35 15 19 - - -
21/12:00am - - - - - ESE 22 32 12 17 - - -
 
Date/Time
CDT
Temp
°C
App
Temp
°C
Dew
Point
Rel
Hum
%
Delta-T
°C
Wind Press
QNH
hPa
Press
MSL
hPa
Rain
since 9 am
mm
Dir
 
Spd
km/h
Gust
km/h
Spd
kts
Gust
kts
20/11:30pm - - - - - ESE 26 32 14 17 - - -
20/11:00pm - - - - - SE 28 35 15 19 - - -
20/10:30pm - - - - - SE 28 35 15 19 - - -
20/10:00pm - - - - - SE 30 35 16 19 - - -
20/09:30pm - - - - - SE 28 32 15 17 - - -
20/09:00pm - - - - - SE 30 32 16 17 - - -
20/08:30pm - - - - - SSE 30 33 16 18 - - -
20/08:00pm - - - - - SSE 32 35 17 19 - - -
20/07:30pm - - - - - SSE 30 33 16 18 - - -
20/07:00pm - - - - - SE 28 35 15 19 - - -
20/06:30pm - - - - - SSE 28 33 15 18 - - -
20/06:00pm - - - - - SSE 28 33 15 18 - - -
20/05:30pm - - - - - SSE 26 30 14 16 - - -
20/05:00pm - - - - - SSE 26 33 14 18 - - -
20/04:30pm - - - - - SSE 19 28 10 15 - - -
20/04:00pm - - - - - ENE 4 9 2 5 - - -
20/03:30pm - - - - - W 4 9 2 5 - - -
20/03:00pm - - - - - SSE 9 20 5 11 - - -
20/02:30pm - - - - - SSE 9 17 5 9 - - -
20/02:00pm - - - - - W 7 15 4 8 - - -
20/01:30pm - - - - - W 7 15 4 8 - - -
20/01:00pm - - - - - WNW 7 17 4 9 - - -
20/12:30pm - - - - - WNW 9 15 5 8 - - -
20/12:00pm - - - - - NW 6 11 3 6 - - -
20/11:30am - - - - - NW 6 9 3 5 - - -
20/11:00am - - - - - NW 7 15 4 8 - - -
20/10:30am - - - - - N 4 11 2 6 - - -
20/10:00am - - - - - ESE 7 13 4 7 - - -
20/09:30am - - - - - E 9 15 5 8 - - -
20/09:00am - - - - - E 7 15 4 8 - - -
20/08:30am - - - - - ESE 13 20 7 11 - - -
20/08:00am - - - - - ESE 19 24 10 13 - - -
20/07:30am - - - - - ESE 17 24 9 13 - - -
20/07:00am - - - - - ESE 15 22 8 12 - - -
20/06:30am - - - - - ESE 17 22 9 12 - - -
20/06:00am - - - - - ESE 17 22 9 12 - - -
20/05:30am - - - - - ESE 19 28 10 15 - - -
20/05:00am - - - - - ESE 19 26 10 14 - - -
20/04:30am - - - - - ESE 19 26 10 14 - - -
20/04:00am - - - - - ESE 20 28 11 15 - - -
20/03:30am - - - - - SE 22 28 12 15 - - -
20/03:00am - - - - - SE 26 30 14 16 - - -
20/02:30am - - - - - SE 28 32 15 17 - - -
20/02:00am - - - - - SE 28 32 15 17 - - -
20/01:30am - - - - - SE 28 32 15 17 - - -
20/01:00am - - - - - SE 26 30 14 16 - - -
20/12:30am - - - - - SE 26 30 14 16 - - -
20/12:00am - - - - - SE 26 32 14 17 - - -
 
Date/Time
CDT
Temp
°C
App
Temp
°C
Dew
Point
Rel
Hum
%
Delta-T
°C
Wind Press
QNH
hPa
Press
MSL
hPa
Rain
since 9 am
mm
Dir
 
Spd
km/h
Gust
km/h
Spd
kts
Gust
kts
19/11:30pm - - - - - SE 24 28 13 15 - - -
19/11:00pm - - - - - SE 30 33 16 18 - - -
19/10:30pm - - - - - SE 30 33 16 18 - - -
19/10:00pm - - - - - SSE 30 32 16 17 - - -
19/09:30pm - - - - - SSE 28 32 15 17 - - -
19/09:00pm - - - - - SSE 28 33 15 18 - - -
19/08:30pm - - - - - SSE 32 35 17 19 - - -
19/08:00pm - - - - - S 32 37 17 20 - - -
19/07:30pm - - - - - S 28 35 15 19 - - -
19/07:00pm - - - - - S 26 33 14 18 - - -
19/06:30pm - - - - - S 24 32 13 17 - - -
19/06:00pm - - - - - S 17 28 9 15 - - -
19/05:30pm - - - - - SSW 9 24 5 13 - - -
19/05:00pm - - - - - W 9 19 5 10 - - -
19/04:30pm - - - - - W 9 24 5 13 - - -
19/04:00pm - - - - - W 9 22 5 12 - - -
19/03:30pm - - - - - W 11 22 6 12 - - -

Other Formats:

Comma delimited format used in spreadsheet applications
http://www.bom.gov.au/fwo/IDS60801/IDS60801.95679.axf

JavaScript Object Notation format (JSON) in row-major order
http://www.bom.gov.au/fwo/IDS60801/IDS60801.95679.json